createdAt,value
2018-10-07T00:00:25.931Z,1021.59
2018-10-07T00:01:26.508Z,1021.63
2018-10-07T00:02:27.085Z,1021.63
2018-10-07T00:03:27.864Z,1021.61
2018-10-07T00:04:28.485Z,1021.61
2018-10-07T00:05:29.065Z,1021.59
2018-10-07T00:06:29.686Z,1021.65
2018-10-07T00:07:30.314Z,1021.60
2018-10-07T00:08:30.892Z,1021.59
2018-10-07T00:09:31.470Z,1021.65
2018-10-07T00:10:32.051Z,1021.61
2018-10-07T00:11:32.632Z,1021.62
2018-10-07T00:12:33.253Z,1021.55
2018-10-07T00:13:33.884Z,1021.61
2018-10-07T00:14:34.462Z,1021.52
2018-10-07T00:15:35.041Z,1021.53
2018-10-07T00:16:35.621Z,1021.56
2018-10-07T00:17:36.200Z,1021.57
2018-10-07T00:18:36.784Z,1021.55
2018-10-07T00:19:37.410Z,1021.55
2018-10-07T00:20:37.991Z,1021.57
2018-10-07T00:21:38.571Z,1021.57
2018-10-07T00:22:39.155Z,1021.60
2018-10-07T00:23:39.775Z,1021.55
2018-10-07T00:24:40.352Z,1021.57
2018-10-07T00:25:40.982Z,1021.62
2018-10-07T00:26:41.603Z,1021.68
2018-10-07T00:27:42.182Z,1021.58
2018-10-07T00:28:42.813Z,1021.58
2018-10-07T00:29:43.431Z,1021.62
2018-10-07T00:30:44.011Z,1021.67
2018-10-07T00:31:44.630Z,1021.66
2018-10-07T00:32:45.211Z,1021.63
2018-10-07T00:33:45.842Z,1021.70
2018-10-07T00:34:46.420Z,1021.76
2018-10-07T00:35:47.048Z,1021.77
2018-10-07T00:36:47.630Z,1021.74
2018-10-07T00:37:48.208Z,1021.81
2018-10-07T00:38:48.788Z,1021.75
2018-10-07T00:39:49.368Z,1021.80
2018-10-07T00:40:49.949Z,1021.70
2018-10-07T00:41:50.525Z,1021.78
2018-10-07T00:42:51.101Z,1021.74
2018-10-07T00:43:51.680Z,1021.75
2018-10-07T00:44:52.311Z,1021.70
2018-10-07T00:45:52.891Z,1021.74
2018-10-07T00:46:53.472Z,1021.76
2018-10-07T00:47:54.142Z,1021.72
2018-10-07T00:48:54.723Z,1021.76
2018-10-07T00:49:55.301Z,1021.82
2018-10-07T00:50:55.881Z,1021.81
2018-10-07T00:51:56.459Z,1021.82
2018-10-07T00:52:57.036Z,1021.79
2018-10-07T00:53:57.615Z,1021.81
2018-10-07T00:54:58.234Z,1021.75
2018-10-07T00:55:58.812Z,1021.75
2018-10-07T00:56:59.444Z,1021.83
2018-10-07T00:58:00.023Z,1021.82
2018-10-07T00:59:00.673Z,1021.76
2018-10-07T01:00:01.219Z,1021.72
2018-10-07T01:01:01.798Z,1021.82
2018-10-07T01:02:02.373Z,1021.71
2018-10-07T01:03:02.954Z,1021.79
2018-10-07T01:04:03.532Z,1021.73
2018-10-07T01:05:04.111Z,1021.68
2018-10-07T01:06:04.739Z,1021.71
2018-10-07T01:07:05.318Z,1021.78
2018-10-07T01:08:05.938Z,1021.76
2018-10-07T01:09:06.519Z,1021.68
2018-10-07T01:10:07.137Z,1021.66
2018-10-07T01:11:07.715Z,1021.65
2018-10-07T01:12:08.341Z,1021.59
2018-10-07T01:13:08.922Z,1021.61
2018-10-07T01:14:09.500Z,1021.63
2018-10-07T01:15:10.078Z,1021.56
2018-10-07T01:16:10.658Z,1021.61
2018-10-07T01:17:11.234Z,1021.58
2018-10-07T01:18:11.812Z,1021.58
2018-10-07T01:19:12.392Z,1021.58
2018-10-07T01:20:12.970Z,1021.60
2018-10-07T01:21:13.602Z,1021.53
2018-10-07T01:22:14.224Z,1021.55
2018-10-07T01:23:14.853Z,1021.58
2018-10-07T01:24:15.432Z,1021.61
2018-10-07T01:25:16.013Z,1021.62
2018-10-07T01:26:16.592Z,1021.55
2018-10-07T01:27:17.170Z,1021.68
2018-10-07T01:28:17.748Z,1021.68
2018-10-07T01:29:18.327Z,1021.64
2018-10-07T01:30:18.913Z,1021.72
2018-10-07T01:31:19.492Z,1021.70
2018-10-07T01:32:20.071Z,1021.65
2018-10-07T01:33:20.648Z,1021.67
2018-10-07T01:34:21.276Z,1021.68
2018-10-07T01:35:21.854Z,1021.67
2018-10-07T01:36:22.433Z,1021.73
2018-10-07T01:37:23.014Z,1021.83
2018-10-07T01:38:23.743Z,1021.77
2018-10-07T01:39:24.323Z,1021.67
2018-10-07T01:40:24.900Z,1021.73
2018-10-07T01:41:25.477Z,1021.65
2018-10-07T01:42:26.056Z,1021.59
2018-10-07T01:43:26.633Z,1021.59
2018-10-07T01:44:27.210Z,1021.56
2018-10-07T01:45:27.787Z,1021.65
2018-10-07T01:46:28.366Z,1021.51
2018-10-07T01:47:28.944Z,1021.58
2018-10-07T01:48:29.523Z,1021.70
2018-10-07T01:49:30.153Z,1021.74
2018-10-07T01:50:30.794Z,1021.61
2018-10-07T01:51:31.361Z,1021.67
2018-10-07T01:52:31.947Z,1021.67
2018-10-07T01:53:32.563Z,1021.66
2018-10-07T01:54:33.139Z,1021.57
2018-10-07T01:55:33.721Z,1021.62
2018-10-07T01:56:34.362Z,1021.56
2018-10-07T01:57:34.959Z,1021.60
2018-10-07T01:58:35.589Z,1021.64
2018-10-07T01:59:36.168Z,1021.59
2018-10-07T02:00:36.749Z,1021.63
2018-10-07T02:01:37.328Z,1021.54
2018-10-07T02:02:37.906Z,1021.56
2018-10-07T02:03:38.483Z,1021.55
2018-10-07T02:04:39.060Z,1021.53
2018-10-07T02:05:39.641Z,1021.46
2018-10-07T02:06:40.232Z,1021.49
2018-10-07T02:07:40.797Z,1021.53
2018-10-07T02:08:41.426Z,1021.53
2018-10-07T02:09:42.054Z,1021.46
2018-10-07T02:10:42.659Z,1021.43
2018-10-07T02:11:43.254Z,1021.46
2018-10-07T02:12:43.832Z,1021.51
2018-10-07T02:13:44.421Z,1021.45
2018-10-07T02:14:45.041Z,1021.53
2018-10-07T02:15:45.621Z,1021.43
2018-10-07T02:16:46.200Z,1021.41
2018-10-07T02:17:46.829Z,1021.48
2018-10-07T02:18:47.407Z,1021.41
2018-10-07T02:19:48.076Z,1021.43
2018-10-07T02:20:48.654Z,1021.41
2018-10-07T02:21:49.233Z,1021.39
2018-10-07T02:22:49.813Z,1021.39
2018-10-07T02:23:50.395Z,1021.40
2018-10-07T02:24:50.971Z,1021.44
2018-10-07T02:25:51.599Z,1021.37
2018-10-07T02:26:52.179Z,1021.32
2018-10-07T02:27:52.759Z,1021.36
2018-10-07T02:28:53.387Z,1021.39
2018-10-07T02:29:53.965Z,1021.39
2018-10-07T02:30:54.546Z,1021.38
2018-10-07T02:31:55.125Z,1021.30
2018-10-07T02:32:55.704Z,1021.30
2018-10-07T02:33:56.284Z,1021.32
2018-10-07T02:34:56.862Z,1021.36
2018-10-07T02:35:57.591Z,1021.35
2018-10-07T02:36:58.173Z,1021.28
2018-10-07T02:37:58.755Z,1021.30
2018-10-07T02:38:59.371Z,1021.27
2018-10-07T02:39:59.950Z,1021.30
2018-10-07T02:41:00.529Z,1021.26
2018-10-07T02:42:01.106Z,1021.31
2018-10-07T02:43:01.684Z,1021.18
2018-10-07T02:44:02.262Z,1021.22
2018-10-07T02:45:02.926Z,1021.24
2018-10-07T02:46:03.508Z,1021.16
2018-10-07T02:47:04.079Z,1021.18
2018-10-07T02:48:04.658Z,1021.20
2018-10-07T02:49:05.236Z,1021.22
2018-10-07T02:50:05.867Z,1021.21
2018-10-07T02:51:06.446Z,1021.24
2018-10-07T02:52:07.029Z,1021.23
2018-10-07T02:53:07.621Z,1021.24
2018-10-07T02:54:08.185Z,1021.24
2018-10-07T02:55:08.765Z,1021.31
2018-10-07T02:56:09.396Z,1021.30
2018-10-07T02:57:09.971Z,1021.32
2018-10-07T02:58:10.551Z,1021.29
2018-10-07T02:59:11.131Z,1021.24
2018-10-07T03:00:11.715Z,1021.25
2018-10-07T03:01:12.336Z,1021.31
2018-10-07T03:02:12.957Z,1021.18
2018-10-07T03:03:13.561Z,1021.27
2018-10-07T03:04:14.141Z,1021.22
2018-10-07T03:05:14.770Z,1021.21
2018-10-07T03:06:15.398Z,1021.17
2018-10-07T03:07:15.977Z,1021.19
2018-10-07T03:08:16.555Z,1021.15
2018-10-07T03:09:17.136Z,1021.12
2018-10-07T03:10:17.714Z,1021.17
2018-10-07T03:11:18.383Z,1021.12
2018-10-07T03:12:18.962Z,1021.12
2018-10-07T03:13:19.539Z,1021.16
2018-10-07T03:14:20.123Z,1021.18
2018-10-07T03:15:20.700Z,1021.19
2018-10-07T03:16:21.320Z,1021.12
2018-10-07T03:17:21.900Z,1021.19
2018-10-07T03:18:22.476Z,1021.19
2018-10-07T03:19:23.054Z,1021.20
2018-10-07T03:20:23.632Z,1021.19
2018-10-07T03:21:24.215Z,1021.13
2018-10-07T03:22:24.830Z,1021.09
2018-10-07T03:23:30.460Z,1020.98
2018-10-07T03:24:31.087Z,1021.05
2018-10-07T03:25:31.714Z,1021.04
2018-10-07T03:26:32.294Z,1021.01
2018-10-07T03:27:32.923Z,1021.09
2018-10-07T03:28:33.544Z,1021.07
2018-10-07T03:29:34.164Z,1021.04
2018-10-07T03:30:34.703Z,1021.06
2018-10-07T03:31:35.282Z,1021.12
2018-10-07T03:32:35.859Z,1021.11
2018-10-07T03:33:36.487Z,1021.18
2018-10-07T03:34:37.066Z,1021.09
2018-10-07T03:35:37.646Z,1021.20
2018-10-07T03:36:38.226Z,1021.18
2018-10-07T03:37:38.809Z,1021.21
2018-10-07T03:38:39.382Z,1021.16
2018-10-07T03:39:39.961Z,1021.23
2018-10-07T03:40:40.540Z,1021.19
2018-10-07T03:41:41.123Z,1021.14
2018-10-07T03:42:41.893Z,1021.20
2018-10-07T03:43:42.475Z,1021.14
2018-10-07T03:44:43.097Z,1021.21
2018-10-07T03:45:43.715Z,1021.18
2018-10-07T03:46:44.339Z,1021.21
2018-10-07T03:47:44.921Z,1021.08
2018-10-07T03:48:45.497Z,1021.15
2018-10-07T03:49:46.077Z,1021.15
2018-10-07T03:50:46.653Z,1021.10
2018-10-07T03:51:47.232Z,1021.08
2018-10-07T03:52:47.808Z,1021.19
2018-10-07T03:53:48.387Z,1021.14
2018-10-07T03:54:49.019Z,1021.10
2018-10-07T03:55:49.591Z,1021.14
2018-10-07T03:56:50.172Z,1021.15
2018-10-07T03:57:50.799Z,1021.17
2018-10-07T03:58:51.378Z,1021.15
2018-10-07T03:59:52.006Z,1021.12
2018-10-07T04:00:52.586Z,1021.17
2018-10-07T04:01:53.163Z,1021.16
2018-10-07T04:02:53.744Z,1021.19
2018-10-07T04:03:54.363Z,1021.12
2018-10-07T04:04:54.940Z,1021.06
2018-10-07T04:05:55.572Z,1021.03
2018-10-07T04:06:56.151Z,1021.09
2018-10-07T04:07:56.727Z,1021.07
2018-10-07T04:08:57.308Z,1021.08
2018-10-07T04:09:57.937Z,1021.10
2018-10-07T04:10:58.516Z,1021.04
2018-10-07T04:11:59.096Z,1021.12
2018-10-07T04:12:59.675Z,1021.20
2018-10-07T04:14:00.305Z,1021.08
2018-10-07T04:15:00.884Z,1021.11
2018-10-07T04:16:01.518Z,1021.13
2018-10-07T04:17:02.136Z,1021.09
2018-10-07T04:18:02.753Z,1021.04
2018-10-07T04:19:03.337Z,1021.03
2018-10-07T04:20:03.911Z,1020.96
2018-10-07T04:21:04.494Z,1021.04
2018-10-07T04:22:05.117Z,1021.01
2018-10-07T04:23:05.696Z,1021.05
2018-10-07T04:24:06.274Z,1021.05
2018-10-07T04:25:06.853Z,1021.05
2018-10-07T04:26:07.430Z,1021.11
2018-10-07T04:27:08.006Z,1021.10
2018-10-07T04:28:08.635Z,1021.05
2018-10-07T04:29:09.215Z,1021.06
2018-10-07T04:30:09.796Z,1021.08
2018-10-07T04:31:10.372Z,1021.08
2018-10-07T04:32:10.999Z,1021.13
2018-10-07T04:33:11.629Z,1021.12
2018-10-07T04:34:12.208Z,1021.09
2018-10-07T04:35:12.786Z,1021.12
2018-10-07T04:36:18.508Z,1021.13
2018-10-07T04:37:19.088Z,1021.16
2018-10-07T04:38:19.665Z,1021.22
2018-10-07T04:39:20.243Z,1021.13
2018-10-07T04:40:20.822Z,1021.17
2018-10-07T04:41:21.400Z,1021.12
2018-10-07T04:42:21.977Z,1021.11
2018-10-07T04:43:22.704Z,1021.08
2018-10-07T04:44:23.279Z,1021.19
2018-10-07T04:45:23.860Z,1021.18
2018-10-07T04:46:24.492Z,1021.15
2018-10-07T04:47:25.013Z,1021.21
2018-10-07T04:48:25.591Z,1021.11
2018-10-07T04:49:26.172Z,1021.21
2018-10-07T04:50:26.753Z,1021.20
2018-10-07T04:51:27.378Z,1021.17
2018-10-07T04:52:27.955Z,1021.13
2018-10-07T04:53:28.532Z,1021.13
2018-10-07T04:54:29.110Z,1021.15
2018-10-07T04:55:29.692Z,1021.20
2018-10-07T04:56:30.266Z,1021.17
2018-10-07T04:57:30.848Z,1021.03
2018-10-07T04:58:31.518Z,1021.03
2018-10-07T04:59:32.097Z,1021.05
2018-10-07T05:00:32.726Z,1021.10
2018-10-07T05:01:33.304Z,1021.10
2018-10-07T05:02:33.885Z,1021.03
2018-10-07T05:03:34.462Z,1020.96
2018-10-07T05:04:35.038Z,1021.05
2018-10-07T05:05:35.614Z,1020.99
2018-10-07T05:06:36.192Z,1020.96
2018-10-07T05:07:36.772Z,1021.07
2018-10-07T05:08:37.401Z,1020.99
2018-10-07T05:09:37.982Z,1020.98
2018-10-07T05:10:38.556Z,1021.08
2018-10-07T05:11:39.140Z,1021.01
2018-10-07T05:12:39.732Z,1021.07
2018-10-07T05:13:40.294Z,1021.10
2018-10-07T05:14:40.874Z,1021.07
2018-10-07T05:15:41.503Z,1021.06
2018-10-07T05:16:42.080Z,1021.05
2018-10-07T05:17:42.657Z,1021.18
2018-10-07T05:18:43.436Z,1021.12
2018-10-07T05:19:44.014Z,1021.15
2018-10-07T05:20:44.599Z,1021.06
2018-10-07T05:21:45.173Z,1021.14
2018-10-07T05:22:45.802Z,1021.08
2018-10-07T05:23:46.387Z,1021.16
2018-10-07T05:24:46.961Z,1021.18
2018-10-07T05:25:47.542Z,1021.20
2018-10-07T05:26:48.132Z,1021.20
2018-10-07T05:27:48.699Z,1021.22
2018-10-07T05:28:49.276Z,1021.24
2018-10-07T05:29:49.855Z,1021.16
2018-10-07T05:30:50.535Z,1021.24
2018-10-07T05:31:51.212Z,1021.18
2018-10-07T05:32:51.839Z,1021.21
2018-10-07T05:33:52.417Z,1021.18
2018-10-07T05:34:53.008Z,1021.21
2018-10-07T05:35:53.617Z,1021.18
2018-10-07T05:36:54.195Z,1021.21
2018-10-07T05:37:54.775Z,1021.20
2018-10-07T05:38:55.356Z,1021.22
2018-10-07T05:39:55.931Z,1021.29
2018-10-07T05:40:56.508Z,1021.34
2018-10-07T05:41:57.085Z,1021.27
2018-10-07T05:42:57.662Z,1021.22
2018-10-07T05:43:58.238Z,1021.24
2018-10-07T05:44:58.817Z,1021.28
2018-10-07T05:45:59.396Z,1021.28
2018-10-07T05:46:59.973Z,1021.21
2018-10-07T05:48:00.554Z,1021.34
2018-10-07T05:49:01.180Z,1021.25
2018-10-07T05:50:01.814Z,1021.28
2018-10-07T05:51:02.394Z,1021.24
2018-10-07T05:52:03.022Z,1021.26
2018-10-07T05:53:03.600Z,1021.34
2018-10-07T05:54:04.180Z,1021.34
2018-10-07T05:55:04.759Z,1021.38
2018-10-07T05:56:05.339Z,1021.32
2018-10-07T05:57:05.917Z,1021.30
2018-10-07T05:58:06.500Z,1021.29
2018-10-07T05:59:07.075Z,1021.22
2018-10-07T06:00:07.653Z,1021.30
2018-10-07T06:01:08.233Z,1021.38
2018-10-07T06:02:08.849Z,1021.35
2018-10-07T06:03:09.389Z,1021.40
2018-10-07T06:04:10.021Z,1021.44
2018-10-07T06:05:10.597Z,1021.41
2018-10-07T06:06:11.179Z,1021.30
2018-10-07T06:07:11.810Z,1021.25
2018-10-07T06:08:12.383Z,1021.31
2018-10-07T06:09:12.960Z,1021.39
2018-10-07T06:10:13.588Z,1021.34
2018-10-07T06:11:14.168Z,1021.30
2018-10-07T06:12:14.745Z,1021.33
2018-10-07T06:13:15.323Z,1021.35
2018-10-07T06:14:15.901Z,1021.38
2018-10-07T06:15:16.478Z,1021.41
2018-10-07T06:16:17.057Z,1021.38
2018-10-07T06:17:17.645Z,1021.34
2018-10-07T06:18:18.257Z,1021.43
2018-10-07T06:19:18.837Z,1021.36
2018-10-07T06:20:19.416Z,1021.40
2018-10-07T06:21:20.054Z,1021.46
2018-10-07T06:22:20.622Z,1021.49
2018-10-07T06:23:21.255Z,1021.44
2018-10-07T06:24:21.828Z,1021.43
2018-10-07T06:25:22.456Z,1021.53
2018-10-07T06:26:23.035Z,1021.50
2018-10-07T06:27:23.613Z,1021.47
2018-10-07T06:28:24.195Z,1021.45
2018-10-07T06:29:24.772Z,1021.40
2018-10-07T06:30:30.405Z,1021.41
2018-10-07T06:31:30.981Z,1021.39
2018-10-07T06:32:31.558Z,1021.44
2018-10-07T06:33:32.138Z,1021.44
2018-10-07T06:34:32.765Z,1021.39
2018-10-07T06:35:33.343Z,1021.39
2018-10-07T06:36:33.972Z,1021.36
2018-10-07T06:37:34.554Z,1021.28
2018-10-07T06:38:35.140Z,1021.32
2018-10-07T06:39:35.710Z,1021.37
2018-10-07T06:40:36.338Z,1021.27
2018-10-07T06:41:36.915Z,1021.29
2018-10-07T06:42:37.644Z,1021.27
2018-10-07T06:43:38.222Z,1021.30
2018-10-07T06:44:38.798Z,1021.30
2018-10-07T06:45:39.436Z,1021.40
2018-10-07T06:46:39.956Z,1021.36
2018-10-07T06:47:40.536Z,1021.33
2018-10-07T06:48:41.110Z,1021.35
2018-10-07T06:49:41.732Z,1021.35
2018-10-07T06:50:42.309Z,1021.30
2018-10-07T06:51:42.935Z,1021.28
2018-10-07T06:52:43.533Z,1021.43
2018-10-07T06:53:44.093Z,1021.42
2018-10-07T06:54:44.673Z,1021.42
2018-10-07T06:55:45.250Z,1021.48
2018-10-07T06:56:45.830Z,1021.44
2018-10-07T06:57:46.458Z,1021.55
2018-10-07T06:58:47.037Z,1021.53
2018-10-07T06:59:47.745Z,1021.52
2018-10-07T07:00:48.197Z,1021.53
2018-10-07T07:01:48.775Z,1021.60
2018-10-07T07:02:49.353Z,1021.54
2018-10-07T07:03:49.931Z,1021.61
2018-10-07T07:04:50.561Z,1021.56
2018-10-07T07:05:51.140Z,1021.60
2018-10-07T07:06:51.767Z,1021.69
2018-10-07T07:07:52.345Z,1021.65
2018-10-07T07:08:52.925Z,1021.59
2018-10-07T07:09:53.504Z,1021.57
2018-10-07T07:10:54.083Z,1021.63
2018-10-07T07:11:54.659Z,1021.70
2018-10-07T07:12:55.258Z,1021.67
2018-10-07T07:13:55.864Z,1021.64
2018-10-07T07:14:56.443Z,1021.64
2018-10-07T07:15:57.020Z,1021.70
2018-10-07T07:16:57.602Z,1021.74
2018-10-07T07:17:58.179Z,1021.65
2018-10-07T07:18:58.758Z,1021.76
2018-10-07T07:19:59.356Z,1021.77
2018-10-07T07:20:59.912Z,1021.75
2018-10-07T07:22:00.541Z,1021.79
2018-10-07T07:23:01.168Z,1021.81
2018-10-07T07:24:01.745Z,1021.78
2018-10-07T07:25:02.323Z,1021.80
2018-10-07T07:26:02.901Z,1021.83
2018-10-07T07:27:03.478Z,1021.79
2018-10-07T07:28:04.056Z,1021.86
2018-10-07T07:29:04.691Z,1021.83
2018-10-07T07:30:05.266Z,1021.81
2018-10-07T07:31:05.843Z,1021.82
2018-10-07T07:32:06.419Z,1021.88
2018-10-07T07:33:07.001Z,1021.87
2018-10-07T07:34:07.578Z,1021.88
2018-10-07T07:35:08.157Z,1021.88
2018-10-07T07:36:08.779Z,1021.87
2018-10-07T07:37:09.358Z,1021.93
2018-10-07T07:38:10.085Z,1021.90
2018-10-07T07:39:10.663Z,1021.89
2018-10-07T07:40:11.242Z,1021.87
2018-10-07T07:41:11.819Z,1021.87
2018-10-07T07:42:12.503Z,1021.93
2018-10-07T07:43:13.027Z,1021.88
2018-10-07T07:44:13.652Z,1021.94
2018-10-07T07:45:14.229Z,1021.87
2018-10-07T07:46:14.806Z,1021.89
2018-10-07T07:47:15.438Z,1021.86
2018-10-07T07:48:16.014Z,1021.90
2018-10-07T07:49:16.643Z,1021.85
2018-10-07T07:50:17.167Z,1021.85
2018-10-07T07:51:17.744Z,1021.86
2018-10-07T07:52:18.319Z,1021.85
2018-10-07T07:53:18.896Z,1021.84
2018-10-07T07:54:19.475Z,1021.88
2018-10-07T07:55:20.055Z,1021.83
2018-10-07T07:56:20.681Z,1021.92
2018-10-07T07:57:21.263Z,1021.96
2018-10-07T07:58:21.833Z,1021.97
2018-10-07T07:59:22.411Z,1022.04
2018-10-07T08:00:23.039Z,1022.02
2018-10-07T08:01:23.623Z,1022.03
2018-10-07T08:02:24.248Z,1022.06
2018-10-07T08:03:24.826Z,1022.00
2018-10-07T08:04:25.407Z,1022.08
2018-10-07T08:05:26.036Z,1022.11
2018-10-07T08:06:26.614Z,1022.07
2018-10-07T08:07:27.191Z,1022.13
2018-10-07T08:08:27.770Z,1022.17
2018-10-07T08:09:28.350Z,1022.14
2018-10-07T08:10:28.928Z,1022.13
2018-10-07T08:11:29.508Z,1022.11
2018-10-07T08:12:30.136Z,1022.15
2018-10-07T08:13:30.715Z,1022.11
2018-10-07T08:14:31.444Z,1022.16
2018-10-07T08:15:32.023Z,1022.18
2018-10-07T08:16:32.654Z,1022.13
2018-10-07T08:17:33.352Z,1022.23
2018-10-07T08:18:33.858Z,1022.21
2018-10-07T08:19:34.434Z,1022.20
2018-10-07T08:20:35.012Z,1022.20
2018-10-07T08:21:35.590Z,1022.24
2018-10-07T08:22:36.217Z,1022.23
2018-10-07T08:23:36.882Z,1022.30
2018-10-07T08:24:37.423Z,1022.28
2018-10-07T08:25:38.004Z,1022.26
2018-10-07T08:26:38.582Z,1022.26
2018-10-07T08:27:39.159Z,1022.27
2018-10-07T08:28:39.738Z,1022.29
2018-10-07T08:29:40.362Z,1022.27
2018-10-07T08:30:40.933Z,1022.39
2018-10-07T08:31:41.562Z,1022.30
2018-10-07T08:32:42.141Z,1022.36
2018-10-07T08:33:42.718Z,1022.38
2018-10-07T08:34:43.347Z,1022.44
2018-10-07T08:35:43.933Z,1022.43
2018-10-07T08:36:44.544Z,1022.50
2018-10-07T08:37:45.123Z,1022.44
2018-10-07T08:38:45.702Z,1022.46
2018-10-07T08:39:46.331Z,1022.44
2018-10-07T08:40:46.908Z,1022.38
2018-10-07T08:41:47.542Z,1022.40
2018-10-07T08:42:48.158Z,1022.43
2018-10-07T08:43:48.738Z,1022.47
2018-10-07T08:44:49.356Z,1022.35
2018-10-07T08:45:49.938Z,1022.49
2018-10-07T08:46:50.512Z,1022.44
2018-10-07T08:47:51.093Z,1022.49
2018-10-07T08:48:51.671Z,1022.49
2018-10-07T08:49:52.302Z,1022.50
2018-10-07T08:50:52.880Z,1022.40
2018-10-07T08:51:53.458Z,1022.38
2018-10-07T08:52:54.041Z,1022.38
2018-10-07T08:53:54.618Z,1022.34
2018-10-07T08:54:55.287Z,1022.47
2018-10-07T08:55:55.871Z,1022.50
2018-10-07T08:56:56.445Z,1022.54
2018-10-07T08:57:57.024Z,1022.55
2018-10-07T08:58:57.601Z,1022.53
2018-10-07T08:59:58.181Z,1022.56
2018-10-07T09:00:58.761Z,1022.52
2018-10-07T09:01:59.485Z,1022.55
2018-10-07T09:03:00.008Z,1022.47
2018-10-07T09:04:00.587Z,1022.47
2018-10-07T09:05:01.170Z,1022.52
2018-10-07T09:06:01.794Z,1022.46
2018-10-07T09:07:02.372Z,1022.41
2018-10-07T09:08:02.951Z,1022.43
2018-10-07T09:09:03.532Z,1022.41
2018-10-07T09:10:04.110Z,1022.40
2018-10-07T09:11:04.685Z,1022.32
2018-10-07T09:12:05.262Z,1022.33
2018-10-07T09:13:05.892Z,1022.35
2018-10-07T09:14:06.511Z,1022.36
2018-10-07T09:15:07.130Z,1022.39
2018-10-07T09:16:07.705Z,1022.41
2018-10-07T09:17:08.283Z,1022.42
2018-10-07T09:18:08.862Z,1022.31
2018-10-07T09:19:09.442Z,1022.32
2018-10-07T09:20:10.019Z,1022.33
2018-10-07T09:21:10.600Z,1022.24
2018-10-07T09:22:11.186Z,1022.30
2018-10-07T09:23:11.816Z,1022.34
2018-10-07T09:24:12.400Z,1022.34
2018-10-07T09:25:12.981Z,1022.36
2018-10-07T09:26:13.612Z,1022.37
2018-10-07T09:27:14.245Z,1022.43
2018-10-07T09:28:14.775Z,1022.37
2018-10-07T09:29:15.360Z,1022.36
2018-10-07T09:30:15.942Z,1022.41
2018-10-07T09:31:16.571Z,1022.35
2018-10-07T09:32:17.166Z,1022.41
2018-10-07T09:33:17.739Z,1022.42
2018-10-07T09:34:18.365Z,1022.46
2018-10-07T09:35:18.990Z,1022.46
2018-10-07T09:36:19.572Z,1022.44
2018-10-07T09:37:20.196Z,1022.48
2018-10-07T09:38:20.781Z,1022.48
2018-10-07T09:39:21.552Z,1022.47
2018-10-07T09:40:21.992Z,1022.44
2018-10-07T09:41:22.574Z,1022.36
2018-10-07T09:42:23.167Z,1022.43
2018-10-07T09:43:23.795Z,1022.47
2018-10-07T09:44:24.379Z,1022.44
2018-10-07T09:45:24.964Z,1022.38
2018-10-07T09:46:25.545Z,1022.47
2018-10-07T09:47:26.129Z,1022.51
2018-10-07T09:48:26.712Z,1022.47
2018-10-07T09:49:27.294Z,1022.51
2018-10-07T09:50:27.879Z,1022.59
2018-10-07T09:51:28.459Z,1022.40
2018-10-07T09:52:29.172Z,1022.43
2018-10-07T09:53:29.675Z,1022.47
2018-10-07T09:54:30.258Z,1022.50
2018-10-07T09:55:30.840Z,1022.47
2018-10-07T09:56:31.423Z,1022.44
2018-10-07T09:57:32.007Z,1022.47
2018-10-07T09:58:32.640Z,1022.48
2018-10-07T09:59:33.222Z,1022.48
2018-10-07T10:00:33.807Z,1022.47
2018-10-07T10:01:34.393Z,1022.52
2018-10-07T10:02:35.019Z,1022.53
2018-10-07T10:03:35.753Z,1022.54
2018-10-07T10:04:36.391Z,1022.52
2018-10-07T10:05:36.923Z,1022.48
2018-10-07T10:06:37.511Z,1022.49
2018-10-07T10:07:38.092Z,1022.41
2018-10-07T10:08:38.676Z,1022.45
2018-10-07T10:09:39.418Z,1022.50
2018-10-07T10:10:39.997Z,1022.37
2018-10-07T10:11:40.584Z,1022.34
2018-10-07T10:12:41.170Z,1022.40
2018-10-07T10:13:41.754Z,1022.42
2018-10-07T10:14:42.336Z,1022.47
2018-10-07T10:15:42.969Z,1022.41
2018-10-07T10:16:43.552Z,1022.41
2018-10-07T10:17:44.174Z,1022.39
2018-10-07T10:18:44.722Z,1022.43
2018-10-07T10:19:45.362Z,1022.42
2018-10-07T10:20:46.041Z,1022.35
2018-10-07T10:21:46.627Z,1022.39
2018-10-07T10:22:47.213Z,1022.44
2018-10-07T10:23:47.796Z,1022.45
2018-10-07T10:24:48.380Z,1022.38
2018-10-07T10:25:48.972Z,1022.36
2018-10-07T10:26:49.552Z,1022.29
2018-10-07T10:27:50.187Z,1022.27
2018-10-07T10:28:50.772Z,1022.29
2018-10-07T10:29:51.408Z,1022.22
2018-10-07T10:30:51.996Z,1022.30
2018-10-07T10:31:52.583Z,1022.30
2018-10-07T10:32:53.170Z,1022.29
2018-10-07T10:33:53.762Z,1022.27
2018-10-07T10:34:54.400Z,1022.29
2018-10-07T10:35:54.987Z,1022.29
2018-10-07T10:36:55.631Z,1022.20
2018-10-07T10:37:56.162Z,1022.30
2018-10-07T10:38:56.753Z,1022.24
2018-10-07T10:39:57.468Z,1022.30
2018-10-07T10:40:58.019Z,1022.31
2018-10-07T10:41:58.609Z,1022.25
2018-10-07T10:42:59.197Z,1022.31
2018-10-07T10:43:59.784Z,1022.38
2018-10-07T10:45:00.423Z,1022.34
2018-10-07T10:46:01.063Z,1022.35
2018-10-07T10:47:01.656Z,1022.31
2018-10-07T10:48:02.318Z,1022.35
2018-10-07T10:49:02.878Z,1022.33
2018-10-07T10:50:03.469Z,1022.38
2018-10-07T10:51:04.062Z,1022.34
2018-10-07T10:52:04.654Z,1022.36
2018-10-07T10:54:20.677Z,1022.28
2018-10-07T10:55:21.262Z,1022.31
2018-10-07T10:56:21.998Z,1022.28
2018-10-07T10:57:22.592Z,1022.26
2018-10-07T10:58:23.190Z,1022.28
2018-10-07T10:59:23.784Z,1022.29
2018-10-07T11:00:38.145Z,1022.20
2018-10-07T11:02:00.506Z,1022.21
2018-10-07T11:03:01.144Z,1022.19
2018-10-07T11:04:19.559Z,1022.21
2018-10-07T11:05:20.114Z,1022.18
2018-10-07T11:07:40.117Z,1022.20
2018-10-07T11:08:40.716Z,1022.13
2018-10-07T11:09:41.307Z,1022.18
2018-10-07T11:10:42.099Z,1022.17
2018-10-07T11:11:42.689Z,1022.15
2018-10-07T11:12:44.494Z,1022.15
2018-10-07T11:13:58.952Z,1022.09
2018-10-07T11:14:59.443Z,1022.07
2018-10-07T11:17:01.630Z,1022.00
2018-10-07T11:18:20.005Z,1022.07
2018-10-07T11:22:39.286Z,1021.96
2018-10-07T11:24:01.714Z,1022.00
2018-10-07T11:25:03.122Z,1021.89
2018-10-07T11:26:03.788Z,1021.95
2018-10-07T11:27:04.323Z,1021.99
2018-10-07T11:29:06.509Z,1021.91
2018-10-07T11:30:07.100Z,1021.99
2018-10-07T11:31:07.791Z,1021.99
2018-10-07T11:32:08.484Z,1021.92
2018-10-07T11:33:09.078Z,1021.89
2018-10-07T11:34:09.670Z,1021.83
2018-10-07T11:35:10.261Z,1021.84
2018-10-07T11:36:10.852Z,1021.92
2018-10-07T11:37:11.544Z,1021.97
2018-10-07T11:38:12.136Z,1021.90
2018-10-07T11:39:12.938Z,1021.95
2018-10-07T11:40:13.764Z,1021.92
2018-10-07T11:41:14.397Z,1021.90
2018-10-07T11:42:32.767Z,1021.93
2018-10-07T11:43:33.367Z,1021.92
2018-10-07T11:44:33.961Z,1021.99
2018-10-07T11:45:34.548Z,1021.93
2018-10-07T11:46:35.184Z,1021.88
2018-10-07T11:47:35.778Z,1021.91
2018-10-07T11:49:37.997Z,1021.96
2018-10-07T11:50:38.598Z,1021.97
2018-10-07T11:51:39.230Z,1021.99
2018-10-07T11:53:41.489Z,1021.91
2018-10-07T11:54:42.083Z,1021.88
2018-10-07T11:55:42.719Z,1021.86
2018-10-07T11:57:44.925Z,1021.81
2018-10-07T11:58:45.512Z,1021.86
2018-10-07T11:59:46.094Z,1021.72
2018-10-07T12:01:00.445Z,1021.77
2018-10-07T12:02:30.869Z,1021.77
2018-10-07T12:03:31.400Z,1021.70
2018-10-07T12:04:32.036Z,1021.70
2018-10-07T12:05:32.670Z,1021.65
2018-10-07T12:06:33.251Z,1021.71
2018-10-07T12:07:33.833Z,1021.63
2018-10-07T12:08:34.474Z,1021.61
2018-10-07T12:09:34.999Z,1021.61
2018-10-07T12:10:35.631Z,1021.70
2018-10-07T12:11:36.213Z,1021.65
2018-10-07T12:12:36.795Z,1021.63
2018-10-07T12:13:37.373Z,1021.62
2018-10-07T12:14:37.997Z,1021.61
2018-10-07T12:15:38.579Z,1021.57
2018-10-07T12:16:39.159Z,1021.60
2018-10-07T12:18:41.333Z,1021.58
2018-10-07T12:19:41.923Z,1021.58
2018-10-07T12:20:42.510Z,1021.49
2018-10-07T12:21:43.100Z,1021.61
2018-10-07T12:22:43.689Z,1021.49
2018-10-07T12:23:44.279Z,1021.43
2018-10-07T12:26:48.115Z,1021.48
2018-10-07T12:27:48.761Z,1021.42
2018-10-07T12:28:49.428Z,1021.33
2018-10-07T12:29:49.978Z,1021.28